createdAt,value
2022-10-11T00:01:45.042Z,12.70
2022-10-11T00:04:11.940Z,12.70
2022-10-11T00:06:38.753Z,12.60
2022-10-11T00:09:05.914Z,12.60
2022-10-11T00:11:32.904Z,12.60
2022-10-11T00:13:59.495Z,12.60
2022-10-11T00:16:26.114Z,12.60
2022-10-11T00:18:52.707Z,12.50
2022-10-11T00:21:20.950Z,12.50
2022-10-11T00:23:48.505Z,12.70
2022-10-11T00:26:15.825Z,12.50
2022-10-11T00:28:43.039Z,12.50
2022-10-11T00:31:13.476Z,12.50
2022-10-11T00:33:40.422Z,12.50
2022-10-11T00:36:08.810Z,12.50
2022-10-11T00:38:35.995Z,12.60
2022-10-11T00:41:02.908Z,12.70
2022-10-11T00:43:31.213Z,12.60
2022-10-11T00:45:57.743Z,13.40
2022-10-11T00:48:33.259Z,12.60
2022-10-11T00:51:02.471Z,12.60
2022-10-11T00:53:32.570Z,12.40
2022-10-11T00:56:06.257Z,12.40
2022-10-11T00:58:36.241Z,12.30
2022-10-11T01:01:03.671Z,12.20
2022-10-11T01:03:32.445Z,12.00
2022-10-11T01:05:59.096Z,12.00
2022-10-11T01:08:26.886Z,11.90
2022-10-11T01:10:53.666Z,11.90
2022-10-11T01:16:29.947Z,12.00
2022-10-11T01:19:48.607Z,12.00
2022-10-11T01:38:42.023Z,11.90
2022-10-11T01:41:13.163Z,12.00
2022-10-11T01:43:42.266Z,11.80
2022-10-11T01:48:56.831Z,11.90
2022-10-11T01:51:29.648Z,11.90
2022-10-11T01:54:22.035Z,11.80
2022-10-11T01:57:27.501Z,11.90
2022-10-11T02:20:21.852Z,12.60
2022-10-11T02:22:52.304Z,12.60
2022-10-11T02:25:26.764Z,12.60
2022-10-11T02:27:57.910Z,12.50
2022-10-11T02:30:24.733Z,12.60
2022-10-11T02:32:52.688Z,12.50
2022-10-11T02:35:20.701Z,12.50
2022-10-11T02:38:10.396Z,12.60
2022-10-11T02:40:41.409Z,12.60
2022-10-11T02:43:19.354Z,12.70
2022-10-11T02:45:54.000Z,12.60
2022-10-11T02:48:20.884Z,12.70
2022-10-11T02:50:47.537Z,13.00
2022-10-11T02:53:14.092Z,12.70
2022-10-11T02:55:40.760Z,12.70
2022-10-11T02:58:07.382Z,12.70
2022-10-11T03:44:42.102Z,13.10
2022-10-11T05:33:29.434Z,13.00
2022-10-11T05:38:23.333Z,11.80
2022-10-11T05:40:50.264Z,13.10
2022-10-11T05:43:16.847Z,13.00
2022-10-11T05:45:44.569Z,12.90
2022-10-11T05:48:11.691Z,12.90
2022-10-11T05:50:39.131Z,13.00
2022-10-11T05:53:06.959Z,12.90
2022-10-11T05:55:44.090Z,13.00
2022-10-11T05:58:13.394Z,13.00
2022-10-11T06:00:40.564Z,12.90
2022-10-11T06:03:08.680Z,12.90
2022-10-11T06:05:35.803Z,12.90
2022-10-11T06:08:03.396Z,12.90
2022-10-11T06:10:29.970Z,12.90
2022-10-11T06:12:56.587Z,12.90
2022-10-11T06:15:23.183Z,12.90
2022-10-11T06:17:49.747Z,12.90
2022-10-11T06:20:16.421Z,12.90
2022-10-11T06:22:43.073Z,13.00
2022-10-11T06:25:09.933Z,12.90
2022-10-11T06:27:36.628Z,13.00
2022-10-11T06:30:04.058Z,13.00
2022-10-11T06:32:30.665Z,13.00
2022-10-11T06:34:57.249Z,13.00
2022-10-11T06:37:23.889Z,13.00
2022-10-11T06:39:50.539Z,13.10
2022-10-11T06:42:17.507Z,13.10
2022-10-11T06:44:44.095Z,13.00
2022-10-11T06:47:10.646Z,13.00
2022-10-11T06:49:37.189Z,13.10
2022-10-11T06:52:03.930Z,13.10
2022-10-11T06:54:30.451Z,13.00
2022-10-11T06:56:57.019Z,13.10
2022-10-11T06:59:23.568Z,13.10
2022-10-11T07:01:50.134Z,13.10
2022-10-11T07:04:16.729Z,13.20
2022-10-11T07:06:43.277Z,13.00
2022-10-11T07:09:09.924Z,13.10
2022-10-11T07:11:36.614Z,13.20
2022-10-11T07:14:07.516Z,13.10
2022-10-11T07:16:37.845Z,13.20
2022-10-11T07:19:06.302Z,13.30
2022-10-11T07:21:34.177Z,13.30
2022-10-11T07:24:01.932Z,13.60
2022-10-11T07:26:33.763Z,13.30
2022-10-11T07:29:04.375Z,13.30
2022-10-11T07:31:31.037Z,13.30
2022-10-11T07:33:57.631Z,13.30
2022-10-11T07:36:25.179Z,13.30
2022-10-11T07:38:51.765Z,13.40
2022-10-11T07:41:18.656Z,13.50
2022-10-11T07:43:47.686Z,13.40
2022-10-11T07:46:15.244Z,13.30
2022-10-11T07:48:41.861Z,13.40
2022-10-11T07:51:15.116Z,13.40
2022-10-11T07:53:49.927Z,13.40
2022-10-11T07:56:22.600Z,13.50
2022-10-11T07:58:54.355Z,13.40
2022-10-11T08:01:21.766Z,13.50
2022-10-11T08:03:49.675Z,13.70
2022-10-11T08:06:19.188Z,13.70
2022-10-11T08:08:45.720Z,13.70
2022-10-11T08:11:20.790Z,13.70
2022-10-11T08:13:47.327Z,13.70
2022-10-11T08:16:14.604Z,13.80
2022-10-11T08:18:41.239Z,13.90
2022-10-11T08:21:13.079Z,14.00
2022-10-11T08:23:40.039Z,14.00
2022-10-11T08:31:02.171Z,13.80
2022-10-11T08:33:28.796Z,14.00
2022-10-11T08:35:57.084Z,14.10
2022-10-11T08:38:24.024Z,13.90
2022-10-11T08:40:56.565Z,13.80
2022-10-11T08:43:56.367Z,13.80
2022-10-11T08:46:28.864Z,13.80
2022-10-11T09:12:22.996Z,14.50
2022-10-11T09:15:09.734Z,14.50
2022-10-11T09:18:10.126Z,14.50
2022-10-11T09:21:08.430Z,14.80
2022-10-11T09:24:00.092Z,15.00
2022-10-11T09:26:31.341Z,15.30
2022-10-11T09:29:45.079Z,15.40
2022-10-11T09:32:15.820Z,15.20
2022-10-11T09:34:42.919Z,15.00
2022-10-11T09:37:26.597Z,14.90
2022-10-11T09:40:09.806Z,14.70
2022-10-11T09:42:36.435Z,14.60
2022-10-11T09:45:16.485Z,14.60
2022-10-11T09:47:43.087Z,14.70
2022-10-11T09:50:30.613Z,14.60
2022-10-11T09:53:00.055Z,14.60
2022-10-11T09:55:33.978Z,14.80
2022-10-11T09:58:01.340Z,14.80
2022-10-11T10:00:32.243Z,14.90
2022-10-11T10:03:01.712Z,14.80
2022-10-11T10:05:36.872Z,14.70
2022-10-11T10:08:23.007Z,14.90
2022-10-11T10:11:03.016Z,14.80
2022-10-11T10:13:53.364Z,15.00
2022-10-11T10:16:22.635Z,15.10
2022-10-11T10:19:17.743Z,15.20
2022-10-11T10:21:47.359Z,15.30
2022-10-11T10:24:37.592Z,15.30
2022-10-11T10:27:25.578Z,15.10
2022-10-11T10:30:13.323Z,15.10
2022-10-11T10:32:59.812Z,14.90
2022-10-11T10:35:42.879Z,15.00
2022-10-11T10:38:35.434Z,15.00
2022-10-11T10:41:09.179Z,15.00
2022-10-11T10:43:38.222Z,15.10
2022-10-11T10:46:31.252Z,15.20
2022-10-11T10:49:51.953Z,15.40
2022-10-11T10:52:42.049Z,15.30
2022-10-11T10:55:35.450Z,15.30
2022-10-11T10:58:07.281Z,15.50
2022-10-11T11:00:49.291Z,15.50
2022-10-11T11:03:43.696Z,15.50
2022-10-11T11:06:43.500Z,15.50
2022-10-11T11:09:45.892Z,15.50
2022-10-11T11:12:42.752Z,15.60
2022-10-11T11:15:38.140Z,15.50
2022-10-11T11:18:25.735Z,15.60
2022-10-11T11:23:37.642Z,15.60
2022-10-11T11:26:15.049Z,15.70
2022-10-11T11:29:08.540Z,15.90
2022-10-11T11:32:03.058Z,15.90
2022-10-11T11:34:37.786Z,15.90
2022-10-11T11:37:14.911Z,16.10
2022-10-11T11:40:10.884Z,16.00
2022-10-11T11:42:45.840Z,16.20
2022-10-11T11:45:27.881Z,16.30
2022-10-11T11:48:05.356Z,16.00
2022-10-11T11:50:39.980Z,15.90
2022-10-11T11:53:21.727Z,15.90
2022-10-11T11:56:01.258Z,15.80
2022-10-11T11:58:39.670Z,15.80
2022-10-11T12:01:30.268Z,15.70
2022-10-11T12:04:21.995Z,15.60
2022-10-11T12:07:16.409Z,15.50
2022-10-11T12:09:50.409Z,15.40
2022-10-11T12:12:33.210Z,15.30
2022-10-11T12:15:08.700Z,15.30
2022-10-11T12:17:55.805Z,15.40
2022-10-11T12:20:27.063Z,15.40
2022-10-11T12:22:53.587Z,15.50
2022-10-11T12:25:23.298Z,15.50
2022-10-11T12:27:51.087Z,15.50
2022-10-11T12:30:42.395Z,15.60
2022-10-11T12:33:21.314Z,15.60
2022-10-11T12:36:29.602Z,15.60
2022-10-11T12:39:18.106Z,15.60
2022-10-11T12:41:47.843Z,15.80
2022-10-11T12:44:27.963Z,15.90
2022-10-11T12:46:54.459Z,15.90
2022-10-11T12:49:27.061Z,15.80
2022-10-11T12:52:00.828Z,15.70
2022-10-11T12:54:38.991Z,15.70
2022-10-11T12:57:11.834Z,15.50
2022-10-11T12:59:44.226Z,15.50
2022-10-11T13:02:30.487Z,15.60
2022-10-11T13:05:18.137Z,15.60
2022-10-11T13:07:45.166Z,15.70
2022-10-11T13:10:28.147Z,15.70
2022-10-11T13:12:56.402Z,15.80
2022-10-11T13:15:24.342Z,15.80
2022-10-11T13:17:54.085Z,15.70
2022-10-11T13:20:25.229Z,15.60
2022-10-11T13:22:54.374Z,15.60
2022-10-11T13:25:26.897Z,15.50
2022-10-11T13:27:55.718Z,15.50
2022-10-11T13:30:32.304Z,15.40
2022-10-11T13:33:08.452Z,15.50
2022-10-11T13:35:37.168Z,15.50
2022-10-11T13:38:07.155Z,15.50
2022-10-11T13:40:34.085Z,15.50
2022-10-11T13:43:01.268Z,15.50
2022-10-11T13:45:30.626Z,15.50
2022-10-11T13:47:57.347Z,15.60
2022-10-11T13:50:34.367Z,15.70
2022-10-11T13:53:23.765Z,15.80
2022-10-11T13:55:57.225Z,15.60
2022-10-11T13:58:32.010Z,15.80
2022-10-11T14:01:16.613Z,15.70
2022-10-11T14:03:47.336Z,15.90
2022-10-11T14:06:13.928Z,16.10
2022-10-11T14:08:47.118Z,16.00
2022-10-11T14:11:14.980Z,15.90
2022-10-11T14:13:47.375Z,15.80
2022-10-11T14:16:20.152Z,15.60
2022-10-11T14:18:49.728Z,15.60
2022-10-11T14:21:19.283Z,15.60
2022-10-11T14:23:59.449Z,15.60
2022-10-11T14:26:30.748Z,15.70
2022-10-11T14:29:00.444Z,15.60
2022-10-11T14:31:27.640Z,15.50
2022-10-11T14:33:55.279Z,15.40
2022-10-11T14:36:22.924Z,15.30
2022-10-11T14:38:53.219Z,15.30
2022-10-11T14:41:19.776Z,15.30
2022-10-11T14:43:46.392Z,15.50
2022-10-11T14:46:24.164Z,15.50
2022-10-11T14:48:56.576Z,15.50
2022-10-11T14:51:28.862Z,15.40
2022-10-11T14:53:55.496Z,15.20
2022-10-11T14:56:22.107Z,15.10
2022-10-11T14:58:49.091Z,15.10
2022-10-11T15:01:16.795Z,15.00
2022-10-11T15:03:43.564Z,14.90
2022-10-11T15:06:22.765Z,14.90
2022-10-11T15:08:49.524Z,14.90
2022-10-11T15:11:19.390Z,14.90
2022-10-11T15:13:46.524Z,14.90
2022-10-11T15:16:14.894Z,14.80
2022-10-11T15:18:42.296Z,14.90
2022-10-11T15:21:13.526Z,14.90
2022-10-11T15:23:40.238Z,14.90
2022-10-11T15:26:07.106Z,14.80
2022-10-11T15:28:34.193Z,14.70
2022-10-11T15:31:00.920Z,14.70
2022-10-11T15:33:27.579Z,14.70
2022-10-11T15:35:54.291Z,14.80
2022-10-11T15:38:23.880Z,14.80
2022-10-11T15:40:52.232Z,14.90
2022-10-11T15:43:24.258Z,14.80
2022-10-11T15:45:51.763Z,14.90
2022-10-11T15:48:20.928Z,14.80
2022-10-11T15:50:49.165Z,14.80
2022-10-11T15:53:21.640Z,14.80
2022-10-11T15:55:50.779Z,14.70
2022-10-11T15:58:26.401Z,14.70
2022-10-11T16:00:55.622Z,14.60
2022-10-11T16:03:25.142Z,14.50
2022-10-11T16:05:53.134Z,14.60
2022-10-11T16:08:20.160Z,14.50
2022-10-11T16:10:47.074Z,14.40
2022-10-11T16:13:14.198Z,14.40
2022-10-11T16:15:42.642Z,14.30
2022-10-11T16:18:13.037Z,14.10
2022-10-11T16:20:40.970Z,14.00
2022-10-11T16:23:07.887Z,13.90
2022-10-11T16:25:34.512Z,13.90
2022-10-11T16:28:02.386Z,13.80
2022-10-11T16:47:43.875Z,13.10
2022-10-11T16:50:11.397Z,13.10
2022-10-11T16:52:37.974Z,12.90
2022-10-11T16:55:05.053Z,12.80
2022-10-11T16:57:31.777Z,12.80
2022-10-11T16:59:58.338Z,12.70
2022-10-11T17:02:31.326Z,12.70
2022-10-11T17:04:59.258Z,12.70
2022-10-11T17:07:26.438Z,12.60
2022-10-11T17:09:53.031Z,12.60
2022-10-11T17:12:23.225Z,12.60
2022-10-11T17:14:50.547Z,12.60
2022-10-11T17:17:18.347Z,12.60
2022-10-11T17:19:45.741Z,12.70
2022-10-11T17:22:14.932Z,12.70
2022-10-11T17:24:41.664Z,12.60
2022-10-11T17:27:08.274Z,12.70
2022-10-11T17:29:35.151Z,12.70
2022-10-11T17:32:02.125Z,12.70
2022-10-11T17:34:29.528Z,12.70
2022-10-11T17:36:56.092Z,12.60
2022-10-11T17:39:23.791Z,12.60
2022-10-11T17:41:51.049Z,12.60
2022-10-11T17:44:18.364Z,12.50
2022-10-11T17:46:45.704Z,12.40
2022-10-11T17:49:12.718Z,12.40
2022-10-11T17:51:40.017Z,12.30
2022-10-11T17:54:12.100Z,12.20
2022-10-11T17:56:39.947Z,12.20
2022-10-11T17:59:06.947Z,12.20
2022-10-11T18:01:33.655Z,12.30
2022-10-11T18:04:03.391Z,12.30
2022-10-11T18:06:33.030Z,12.40
2022-10-11T18:09:01.806Z,12.50
2022-10-11T18:11:29.141Z,12.60
2022-10-11T18:13:56.237Z,12.60
2022-10-11T18:16:26.804Z,12.60
2022-10-11T18:18:54.647Z,12.70
2022-10-11T18:21:21.237Z,12.70
2022-10-11T18:23:47.869Z,12.70
2022-10-11T18:26:17.150Z,12.70
2022-10-11T18:28:44.357Z,12.60
2022-10-11T18:31:15.268Z,12.60
2022-10-11T18:33:42.991Z,12.50
2022-10-11T18:36:13.172Z,12.50
2022-10-11T18:38:43.866Z,12.50
2022-10-11T18:41:11.531Z,12.50
2022-10-11T18:43:38.434Z,12.50
2022-10-11T18:46:13.631Z,12.60
2022-10-11T18:48:44.466Z,12.70
2022-10-11T18:51:14.890Z,12.70
2022-10-11T18:53:42.168Z,12.70
2022-10-11T18:56:10.430Z,12.80
2022-10-11T18:58:38.175Z,12.80
2022-10-11T19:01:10.254Z,12.90
2022-10-11T19:03:37.219Z,12.90
2022-10-11T19:06:12.644Z,12.90
2022-10-11T19:08:39.171Z,13.00
2022-10-11T19:11:09.992Z,12.90
2022-10-11T19:13:36.885Z,12.90
2022-10-11T19:16:11.400Z,12.90
2022-10-11T19:18:41.820Z,12.90
2022-10-11T19:21:12.588Z,12.90
2022-10-11T19:23:41.767Z,12.90
2022-10-11T19:26:14.299Z,12.90
2022-10-11T19:28:41.385Z,12.90
2022-10-11T19:31:10.039Z,12.90
2022-10-11T19:33:37.076Z,12.90
2022-10-11T19:36:05.618Z,12.90
2022-10-11T19:38:34.139Z,12.80
2022-10-11T19:41:02.059Z,12.90
2022-10-11T19:43:28.608Z,12.90
2022-10-11T19:46:03.276Z,12.90
2022-10-11T19:48:30.370Z,12.90
2022-10-11T19:51:08.291Z,13.00
2022-10-11T19:53:35.719Z,12.90
2022-10-11T19:56:03.813Z,12.90
2022-10-11T19:58:30.559Z,12.90
2022-10-11T20:01:01.755Z,12.90
2022-10-11T20:03:28.334Z,12.90
2022-10-11T20:05:54.965Z,12.90
2022-10-11T20:08:21.674Z,12.80
2022-10-11T20:10:48.236Z,12.80
2022-10-11T20:13:14.780Z,12.80
2022-10-11T20:15:41.349Z,12.90
2022-10-11T20:18:08.196Z,12.90
2022-10-11T20:20:34.768Z,12.90
2022-10-11T20:23:01.372Z,12.90
2022-10-11T20:25:27.920Z,12.90
2022-10-11T20:27:54.476Z,12.90
2022-10-11T20:30:21.093Z,12.90
2022-10-11T20:32:47.619Z,12.90
2022-10-11T20:35:14.270Z,12.90
2022-10-11T20:37:40.795Z,12.90
2022-10-11T20:40:07.931Z,12.90
2022-10-11T20:42:34.485Z,12.80
2022-10-11T20:45:01.231Z,12.90
2022-10-11T20:47:27.779Z,12.90
2022-10-11T20:49:54.320Z,12.90
2022-10-11T20:52:20.862Z,12.90
2022-10-11T20:54:47.408Z,12.90
2022-10-11T20:57:13.992Z,12.90
2022-10-11T20:59:40.539Z,12.90
2022-10-11T21:02:07.264Z,12.90
2022-10-11T21:04:33.829Z,12.90
2022-10-11T21:07:00.393Z,12.80
2022-10-11T21:09:26.982Z,12.90
2022-10-11T21:11:53.507Z,12.80
2022-10-11T21:14:20.082Z,12.80
2022-10-11T21:16:46.693Z,12.90
2022-10-11T21:19:14.997Z,12.80
2022-10-11T21:21:42.630Z,12.90
2022-10-11T21:24:09.184Z,12.80
2022-10-11T21:26:35.769Z,12.80
2022-10-11T21:29:03.965Z,12.80
2022-10-11T21:31:34.048Z,12.80
2022-10-11T21:34:01.846Z,12.80
2022-10-11T21:36:28.454Z,12.80
2022-10-11T21:38:54.993Z,12.80
2022-10-11T21:41:25.432Z,12.80
2022-10-11T21:43:52.527Z,12.70
2022-10-11T21:46:29.283Z,12.70
2022-10-11T21:49:03.504Z,12.70
2022-10-11T21:51:31.102Z,12.60
2022-10-11T21:54:00.214Z,12.60
2022-10-11T21:56:27.758Z,12.60
2022-10-11T21:58:54.435Z,12.60
2022-10-11T22:01:21.721Z,12.60
2022-10-11T22:03:49.171Z,12.60
2022-10-11T22:06:16.329Z,12.60
2022-10-11T22:08:42.910Z,12.60
2022-10-11T22:11:10.105Z,12.60
2022-10-11T22:13:36.854Z,12.60
2022-10-11T22:16:05.701Z,12.60
2022-10-11T22:18:33.814Z,12.50
2022-10-11T22:21:21.283Z,12.50
2022-10-11T22:23:50.882Z,12.50
2022-10-11T22:26:23.410Z,12.50
2022-10-11T22:28:50.112Z,12.50
2022-10-11T22:31:18.466Z,12.50
2022-10-11T22:36:18.836Z,12.50
2022-10-11T22:38:46.244Z,12.40
2022-10-11T22:41:13.132Z,12.40
2022-10-11T22:43:40.128Z,12.40
2022-10-11T22:46:07.214Z,12.50
2022-10-11T22:48:33.892Z,12.50
2022-10-11T22:51:01.015Z,12.40
2022-10-11T22:53:28.131Z,12.40
2022-10-11T22:55:54.759Z,12.40
2022-10-11T22:58:21.298Z,12.40
2022-10-11T23:00:47.877Z,12.40
2022-10-11T23:03:15.925Z,12.40
2022-10-11T23:05:42.894Z,12.40
2022-10-11T23:08:10.267Z,12.40
2022-10-11T23:10:40.432Z,12.40
2022-10-11T23:13:07.563Z,12.40
2022-10-11T23:15:34.130Z,12.40
2022-10-11T23:18:00.683Z,12.30
2022-10-11T23:20:27.314Z,12.30
2022-10-11T23:22:53.848Z,12.30
2022-10-11T23:25:20.399Z,12.30
2022-10-11T23:27:46.978Z,12.30
2022-10-11T23:30:13.736Z,12.20
2022-10-11T23:32:40.273Z,12.20
2022-10-11T23:35:07.170Z,12.20
2022-10-11T23:37:33.774Z,12.20
2022-10-11T23:40:00.322Z,12.10
2022-10-11T23:42:26.840Z,12.10
2022-10-11T23:44:54.110Z,12.10
2022-10-11T23:47:20.648Z,12.00
2022-10-11T23:49:47.192Z,12.00
2022-10-11T23:52:13.768Z,12.10
2022-10-11T23:54:40.313Z,12.00
2022-10-11T23:57:06.860Z,12.00
2022-10-11T23:59:33.397Z,11.90
